createdAt,value
2023-01-20T00:01:41.133Z,10.21
2023-01-20T00:04:10.041Z,10.20
2023-01-20T00:06:38.613Z,10.16
2023-01-20T00:09:07.209Z,10.15
2023-01-20T00:11:35.274Z,10.14
2023-01-20T00:14:03.360Z,10.14
2023-01-20T00:16:32.351Z,10.14
2023-01-20T00:19:00.947Z,10.14
2023-01-20T00:21:29.018Z,10.13
2023-01-20T00:23:57.307Z,10.11
2023-01-20T00:26:25.798Z,10.10
2023-01-20T00:28:55.344Z,10.10
2023-01-20T00:31:26.374Z,10.08
2023-01-20T00:33:56.885Z,10.06
2023-01-20T00:36:26.378Z,10.04
2023-01-20T00:38:54.769Z,10.04
2023-01-20T00:41:23.552Z,10.04
2023-01-20T00:43:51.577Z,10.04
2023-01-20T00:46:19.636Z,10.03
2023-01-20T00:48:47.613Z,10.03
2023-01-20T00:51:15.533Z,10.02
2023-01-20T00:53:43.647Z,10.01
2023-01-20T00:56:12.225Z,10.01
2023-01-20T00:58:43.985Z,10.00
2023-01-20T01:01:13.385Z,9.99
2023-01-20T01:03:41.688Z,9.98
2023-01-20T01:06:13.084Z,9.97
2023-01-20T01:08:42.230Z,9.96
2023-01-20T01:11:11.853Z,9.96
2023-01-20T01:13:40.629Z,9.96
2023-01-20T01:16:13.758Z,9.96
2023-01-20T01:18:42.998Z,9.94
2023-01-20T01:21:14.506Z,9.94
2023-01-20T01:23:43.583Z,9.93
2023-01-20T01:26:11.675Z,9.93
2023-01-20T01:28:40.336Z,9.92
2023-01-20T01:31:09.220Z,9.91
2023-01-20T01:33:37.946Z,9.90
2023-01-20T01:36:08.701Z,9.90
2023-01-20T01:38:36.848Z,9.90
2023-01-20T01:41:05.648Z,9.89
2023-01-20T01:43:36.582Z,9.88
2023-01-20T01:46:05.265Z,9.87
2023-01-20T01:48:38.575Z,9.86
2023-01-20T01:51:12.525Z,9.87
2023-01-20T01:53:47.207Z,9.85
2023-01-20T01:56:16.717Z,9.86
2023-01-20T01:58:48.878Z,9.85
2023-01-20T02:01:18.056Z,9.83
2023-01-20T02:03:56.614Z,9.83
2023-01-20T02:06:27.752Z,9.82
2023-01-20T02:08:56.159Z,9.81
2023-01-20T02:11:24.514Z,9.80
2023-01-20T02:13:52.843Z,9.79
2023-01-20T02:16:35.264Z,9.79
2023-01-20T02:19:37.162Z,9.78
2023-01-20T02:22:31.142Z,9.77
2023-01-20T02:25:26.917Z,9.77
2023-01-20T02:28:33.980Z,9.77
2023-01-20T02:31:44.059Z,9.78
2023-01-20T02:34:22.337Z,9.77
2023-01-20T02:37:08.627Z,9.77
2023-01-20T02:39:55.326Z,9.77
2023-01-20T02:42:41.173Z,9.76
2023-01-20T02:45:15.605Z,9.75
2023-01-20T02:47:50.750Z,9.73
2023-01-20T02:50:37.997Z,9.72
2023-01-20T02:53:07.733Z,9.70
2023-01-20T02:55:44.385Z,9.70
2023-01-20T02:58:23.518Z,9.69
2023-01-20T03:01:16.423Z,9.67
2023-01-20T03:03:48.150Z,9.68
2023-01-20T03:06:21.905Z,9.69
2023-01-20T03:08:53.533Z,9.69
2023-01-20T03:11:22.049Z,9.68
2023-01-20T03:14:05.267Z,9.68
2023-01-20T03:16:33.753Z,9.67
2023-01-20T03:19:02.347Z,9.66
2023-01-20T03:21:30.621Z,9.66
2023-01-20T03:24:02.389Z,9.67
2023-01-20T03:26:33.532Z,9.66
2023-01-20T03:29:06.733Z,9.66
2023-01-20T03:31:49.174Z,9.65
2023-01-20T03:34:23.343Z,9.65
2023-01-20T03:36:53.823Z,9.65
2023-01-20T03:39:23.983Z,9.67
2023-01-20T03:42:16.950Z,9.67
2023-01-20T03:44:59.959Z,9.68
2023-01-20T03:47:48.912Z,9.69
2023-01-20T03:50:39.802Z,9.68
2023-01-20T03:53:46.471Z,9.67
2023-01-20T03:56:21.719Z,9.66
2023-01-20T03:58:53.581Z,9.66
2023-01-20T04:01:25.417Z,9.67
2023-01-20T04:03:55.138Z,9.67
2023-01-20T04:06:28.146Z,9.67
2023-01-20T04:09:10.841Z,9.68
2023-01-20T04:11:39.547Z,9.69
2023-01-20T04:14:09.767Z,9.68
2023-01-20T04:16:38.351Z,9.68
2023-01-20T04:19:06.415Z,9.69
2023-01-20T04:21:41.973Z,9.68
2023-01-20T04:24:33.179Z,9.68
2023-01-20T04:27:01.463Z,9.68
2023-01-20T04:29:29.517Z,9.69
2023-01-20T04:32:02.366Z,9.68
2023-01-20T04:34:30.598Z,9.68
2023-01-20T04:36:58.679Z,9.69
2023-01-20T04:39:26.756Z,9.69
2023-01-20T04:41:55.133Z,9.68
2023-01-20T04:44:23.322Z,9.67
2023-01-20T04:46:51.497Z,9.65
2023-01-20T04:49:19.676Z,9.67
2023-01-20T04:51:47.859Z,9.67
2023-01-20T04:54:15.925Z,9.65
2023-01-20T04:56:44.420Z,9.63
2023-01-20T04:59:12.809Z,9.63
2023-01-20T05:01:40.945Z,9.64
2023-01-20T05:04:09.367Z,9.65
2023-01-20T05:06:37.432Z,9.66
2023-01-20T05:09:05.629Z,9.65
2023-01-20T05:11:34.304Z,9.63
2023-01-20T05:14:02.386Z,9.62
2023-01-20T05:16:32.225Z,9.62
2023-01-20T05:19:00.991Z,9.64
2023-01-20T05:21:29.171Z,9.64
2023-01-20T05:23:57.964Z,9.65
2023-01-20T05:26:26.916Z,9.65
2023-01-20T05:28:54.930Z,9.65
2023-01-20T05:31:22.972Z,9.66
2023-01-20T05:33:51.498Z,9.66
2023-01-20T05:36:19.579Z,9.67
2023-01-20T05:38:47.651Z,9.68
2023-01-20T05:41:15.948Z,9.68
2023-01-20T05:43:44.026Z,9.68
2023-01-20T05:46:12.108Z,9.66
2023-01-20T05:48:40.271Z,9.65
2023-01-20T05:51:08.542Z,9.66
2023-01-20T05:53:36.618Z,9.65
2023-01-20T05:56:06.287Z,9.65
2023-01-20T05:58:34.715Z,9.64
2023-01-20T06:01:11.563Z,9.64
2023-01-20T06:03:40.544Z,9.63
2023-01-20T06:06:14.208Z,9.62
2023-01-20T06:08:42.587Z,9.62
2023-01-20T06:11:11.721Z,9.62
2023-01-20T06:13:39.961Z,9.62
2023-01-20T06:16:08.502Z,9.62
2023-01-20T06:18:36.829Z,9.61
2023-01-20T06:21:05.625Z,9.61
2023-01-20T06:23:34.207Z,9.62
2023-01-20T06:26:07.155Z,9.63
2023-01-20T06:28:35.905Z,9.64
2023-01-20T06:31:07.238Z,9.64
2023-01-20T06:33:35.933Z,9.64
2023-01-20T06:36:05.229Z,9.65
2023-01-20T06:38:35.370Z,9.65
2023-01-20T06:41:07.049Z,9.65
2023-01-20T06:43:35.797Z,9.68
2023-01-20T06:46:06.432Z,9.72
2023-01-20T06:48:34.826Z,9.74
2023-01-20T06:51:21.200Z,9.74
2023-01-20T06:53:49.299Z,9.74
2023-01-20T06:56:17.382Z,9.74
2023-01-20T06:58:45.455Z,9.75
2023-01-20T07:01:18.752Z,9.75
2023-01-20T07:03:46.921Z,9.74
2023-01-20T07:06:28.912Z,9.73
2023-01-20T07:08:58.970Z,9.73
2023-01-20T07:11:28.585Z,9.73
2023-01-20T07:13:57.042Z,9.74
2023-01-20T07:16:25.258Z,9.74
2023-01-20T07:18:54.652Z,9.73
2023-01-20T07:21:26.019Z,9.73
2023-01-20T07:23:54.673Z,9.73
2023-01-20T07:26:26.434Z,9.73
2023-01-20T07:28:54.622Z,9.72
2023-01-20T07:31:24.868Z,9.73
2023-01-20T07:33:56.320Z,9.74
2023-01-20T07:36:25.082Z,9.73
2023-01-20T07:38:53.960Z,9.74
2023-01-20T07:41:23.066Z,9.74
2023-01-20T07:43:53.201Z,9.73
2023-01-20T07:46:21.706Z,9.72
2023-01-20T07:48:49.693Z,9.73
2023-01-20T07:51:18.447Z,9.77
2023-01-20T07:53:51.660Z,9.80
2023-01-20T07:56:25.856Z,9.86
2023-01-20T07:58:55.693Z,9.93
2023-01-20T08:01:28.769Z,9.99
2023-01-20T08:04:00.741Z,10.07
2023-01-20T08:06:29.862Z,10.14
2023-01-20T08:09:01.685Z,10.19
2023-01-20T08:11:32.247Z,10.26
2023-01-20T08:14:00.314Z,10.33
2023-01-20T08:16:28.373Z,10.38
2023-01-20T08:18:56.668Z,10.43
2023-01-20T08:21:30.791Z,10.45
2023-01-20T08:24:00.899Z,10.48
2023-01-20T08:26:29.985Z,10.52
2023-01-20T08:29:03.817Z,10.54
2023-01-20T08:31:32.333Z,10.58
2023-01-20T08:34:00.976Z,10.59
2023-01-20T08:36:32.016Z,10.59
2023-01-20T08:39:04.623Z,10.60
2023-01-20T08:41:35.957Z,10.60
2023-01-20T08:44:06.483Z,10.59
2023-01-20T08:46:35.375Z,10.58
2023-01-20T08:49:10.600Z,10.58
2023-01-20T08:51:39.618Z,10.56
2023-01-20T08:54:08.247Z,10.53
2023-01-20T08:56:37.031Z,10.50
2023-01-20T08:59:05.275Z,10.45
2023-01-20T09:01:36.371Z,10.41
2023-01-20T09:04:07.079Z,10.39
2023-01-20T09:06:40.821Z,10.34
2023-01-20T09:09:09.107Z,10.31
2023-01-20T09:11:38.918Z,10.27
2023-01-20T09:14:07.067Z,10.24
2023-01-20T09:16:35.543Z,10.19
2023-01-20T09:19:04.319Z,10.17
2023-01-20T09:21:32.347Z,10.14
2023-01-20T09:24:00.580Z,10.12
2023-01-20T09:26:36.333Z,10.10
2023-01-20T09:29:10.036Z,10.07
2023-01-20T09:31:44.917Z,10.05
2023-01-20T09:34:19.832Z,10.04
2023-01-20T09:36:56.695Z,10.02
2023-01-20T09:39:43.800Z,10.04
2023-01-20T09:42:48.712Z,10.08
2023-01-20T09:45:49.082Z,10.13
2023-01-20T09:49:00.373Z,10.17
2023-01-20T09:52:01.807Z,10.20
2023-01-20T09:54:42.068Z,10.20
2023-01-20T09:57:12.710Z,10.18
2023-01-20T09:59:47.933Z,10.17
2023-01-20T10:02:26.037Z,10.17
2023-01-20T10:05:02.294Z,10.16
2023-01-20T10:07:46.363Z,10.15
2023-01-20T10:10:31.316Z,10.15
2023-01-20T10:13:16.181Z,10.14
2023-01-20T10:16:08.517Z,10.14
2023-01-20T10:18:49.482Z,10.14
2023-01-20T10:21:27.991Z,10.15
2023-01-20T10:24:01.056Z,10.16
2023-01-20T10:26:53.545Z,10.20
2023-01-20T10:29:45.132Z,10.25
2023-01-20T10:32:31.209Z,10.30
2023-01-20T10:35:08.087Z,10.35
2023-01-20T10:37:36.674Z,10.41
2023-01-20T10:40:27.682Z,10.46
2023-01-20T10:42:59.150Z,10.52
2023-01-20T10:45:42.697Z,10.58
2023-01-20T10:48:13.800Z,10.64
2023-01-20T10:50:41.756Z,10.68
2023-01-20T10:53:10.513Z,10.71
2023-01-20T10:56:04.907Z,10.74
2023-01-20T10:58:38.026Z,10.76
2023-01-20T11:01:10.209Z,10.77
2023-01-20T11:03:42.821Z,10.80
2023-01-20T11:06:25.696Z,10.81
2023-01-20T11:08:55.318Z,10.82
2023-01-20T11:11:25.672Z,10.81
2023-01-20T11:13:54.347Z,10.82
2023-01-20T11:16:26.299Z,10.82
2023-01-20T11:19:07.774Z,10.82
2023-01-20T11:21:37.372Z,10.81
2023-01-20T11:24:25.521Z,10.79
2023-01-20T11:27:03.365Z,10.78
2023-01-20T11:29:39.119Z,10.78
2023-01-20T11:32:29.503Z,10.78
2023-01-20T11:34:58.452Z,10.76
2023-01-20T11:37:35.437Z,10.77
2023-01-20T11:40:20.503Z,10.77
2023-01-20T11:42:51.249Z,10.76
2023-01-20T11:45:37.625Z,10.78
2023-01-20T11:48:08.364Z,10.78
2023-01-20T11:50:57.716Z,10.78
2023-01-20T11:53:28.556Z,10.78
2023-01-20T11:56:34.339Z,10.78
2023-01-20T11:59:04.421Z,10.77
2023-01-20T12:01:50.237Z,10.76
2023-01-20T12:04:18.244Z,10.75
2023-01-20T12:07:11.127Z,10.74
2023-01-20T12:09:51.480Z,10.74
2023-01-20T12:12:36.643Z,10.75
2023-01-20T12:15:15.576Z,10.77
2023-01-20T12:18:06.274Z,10.78
2023-01-20T12:21:01.899Z,10.78
2023-01-20T12:23:52.053Z,10.80
2023-01-20T12:26:23.549Z,10.82
2023-01-20T12:29:07.560Z,10.84
2023-01-20T12:31:35.743Z,10.88
2023-01-20T12:34:12.901Z,10.90
2023-01-20T12:36:59.428Z,10.91
2023-01-20T12:39:37.922Z,10.90
2023-01-20T12:42:08.960Z,10.89
2023-01-20T12:45:09.685Z,10.88
2023-01-20T12:47:53.074Z,10.89
2023-01-20T12:50:24.257Z,10.92
2023-01-20T12:53:10.967Z,10.95
2023-01-20T12:55:49.054Z,10.99
2023-01-20T12:58:32.285Z,11.01
2023-01-20T13:01:24.903Z,11.04
2023-01-20T13:04:09.678Z,11.06
2023-01-20T13:06:43.891Z,11.09
2023-01-20T13:09:45.721Z,11.12
2023-01-20T13:12:30.424Z,11.16
2023-01-20T13:15:02.009Z,11.19
2023-01-20T13:18:03.800Z,11.22
2023-01-20T13:20:32.175Z,11.23
2023-01-20T13:23:06.100Z,11.25
2023-01-20T13:25:35.288Z,11.25
2023-01-20T13:28:04.080Z,11.26
2023-01-20T13:30:54.729Z,11.26
2023-01-20T13:33:33.076Z,11.26
2023-01-20T13:36:20.750Z,11.24
2023-01-20T13:38:51.857Z,11.22
2023-01-20T13:41:49.090Z,11.19
2023-01-20T13:44:42.287Z,11.16
2023-01-20T13:47:11.854Z,11.14
2023-01-20T13:49:54.687Z,11.13
2023-01-20T13:52:51.206Z,11.12
2023-01-20T13:55:51.484Z,11.09
2023-01-20T13:58:31.724Z,11.08
2023-01-20T14:01:05.412Z,11.07
2023-01-20T14:03:40.803Z,11.05
2023-01-20T14:06:23.827Z,11.04
2023-01-20T14:08:51.961Z,11.02
2023-01-20T14:11:22.671Z,11.01
2023-01-20T14:14:00.056Z,11.00
2023-01-20T14:16:39.906Z,11.01
2023-01-20T14:19:29.957Z,11.02
2023-01-20T14:22:03.751Z,11.01
2023-01-20T14:25:00.975Z,10.99
2023-01-20T14:27:37.056Z,10.97
2023-01-20T14:30:25.361Z,10.96
2023-01-20T14:32:53.971Z,10.94
2023-01-20T14:35:32.390Z,10.93
2023-01-20T14:38:01.715Z,10.91
2023-01-20T14:40:36.231Z,10.90
2023-01-20T14:43:15.966Z,10.89
2023-01-20T14:45:48.458Z,10.88
2023-01-20T14:48:32.482Z,10.88
2023-01-20T14:51:04.508Z,10.87
2023-01-20T14:53:32.731Z,10.87
2023-01-20T14:56:07.593Z,10.86
2023-01-20T14:58:36.599Z,10.85
2023-01-20T15:01:06.744Z,10.86
2023-01-20T15:03:35.021Z,10.86
2023-01-20T15:06:09.184Z,10.89
2023-01-20T15:08:37.567Z,10.91
2023-01-20T15:11:18.615Z,10.93
2023-01-20T15:13:58.998Z,10.97
2023-01-20T15:16:31.236Z,10.99
2023-01-20T15:19:18.614Z,11.02
2023-01-20T15:21:56.582Z,11.05
2023-01-20T15:24:30.970Z,11.09
2023-01-20T15:27:01.162Z,11.10
2023-01-20T15:29:32.163Z,11.11
2023-01-20T15:32:02.821Z,11.11
2023-01-20T15:34:30.993Z,11.10
2023-01-20T15:36:59.057Z,11.09
2023-01-20T15:39:31.644Z,11.09
2023-01-20T15:42:01.549Z,11.08
2023-01-20T15:44:29.642Z,11.07
2023-01-20T15:46:58.351Z,11.03
2023-01-20T15:49:26.719Z,10.99
2023-01-20T15:51:54.885Z,10.96
2023-01-20T15:54:23.175Z,10.94
2023-01-20T15:56:51.243Z,10.91
2023-01-20T15:59:22.866Z,10.88
2023-01-20T16:01:52.259Z,10.86
2023-01-20T16:04:21.304Z,10.84
2023-01-20T16:06:49.385Z,10.82
2023-01-20T16:09:25.919Z,10.81
2023-01-20T16:11:54.664Z,10.80
2023-01-20T16:14:23.341Z,10.80
2023-01-20T16:16:51.268Z,10.82
2023-01-20T16:19:19.485Z,10.83
2023-01-20T16:21:47.562Z,10.85
2023-01-20T16:24:15.843Z,10.86
2023-01-20T16:26:46.982Z,10.87
2023-01-20T16:29:14.969Z,10.88
2023-01-20T16:31:43.074Z,10.88
2023-01-20T16:34:11.147Z,10.88
2023-01-20T16:36:39.614Z,10.88
2023-01-20T16:39:07.729Z,10.88
2023-01-20T16:41:36.968Z,10.89
2023-01-20T16:44:05.161Z,10.91
2023-01-20T16:46:33.676Z,10.95
2023-01-20T16:49:03.155Z,10.99
2023-01-20T16:51:33.136Z,11.04
2023-01-20T16:54:02.078Z,11.09
2023-01-20T16:56:32.552Z,11.13
2023-01-20T16:59:02.231Z,11.17
2023-01-20T17:01:30.694Z,11.22
2023-01-20T17:04:01.346Z,11.25
2023-01-20T17:06:32.415Z,11.28
2023-01-20T17:09:03.232Z,11.30
2023-01-20T17:11:34.576Z,11.33
2023-01-20T17:14:05.541Z,11.34
2023-01-20T17:16:34.050Z,11.37
2023-01-20T17:19:02.923Z,11.37
2023-01-20T17:21:33.114Z,11.37
2023-01-20T17:24:03.745Z,11.37
2023-01-20T17:26:32.666Z,11.36
2023-01-20T17:29:03.421Z,11.35
2023-01-20T17:31:35.441Z,11.36
2023-01-20T17:34:05.477Z,11.34
2023-01-20T17:36:34.979Z,11.32
2023-01-20T17:39:05.198Z,11.30
2023-01-20T17:41:34.518Z,11.26
2023-01-20T17:44:04.166Z,11.22
2023-01-20T17:46:32.952Z,11.18
2023-01-20T17:49:04.830Z,11.15
2023-01-20T17:51:33.272Z,11.12
2023-01-20T17:54:04.003Z,11.10
2023-01-20T17:56:33.026Z,11.08
2023-01-20T17:59:01.020Z,11.07
2023-01-20T18:01:32.031Z,11.04
2023-01-20T18:04:04.091Z,11.02
2023-01-20T18:06:35.736Z,10.99
2023-01-20T18:09:07.320Z,10.97
2023-01-20T18:11:37.525Z,10.95
2023-01-20T18:14:07.049Z,10.92
2023-01-20T18:16:37.999Z,10.90
2023-01-20T18:19:06.290Z,10.87
2023-01-20T18:21:36.494Z,10.86
2023-01-20T18:24:07.631Z,10.84
2023-01-20T18:26:37.904Z,10.83
2023-01-20T18:29:08.717Z,10.81
2023-01-20T18:31:36.774Z,10.82
2023-01-20T18:34:07.850Z,10.83
2023-01-20T18:36:41.904Z,10.85
2023-01-20T18:39:22.727Z,10.86
2023-01-20T18:41:51.798Z,10.89
2023-01-20T18:44:21.353Z,10.94
2023-01-20T18:46:49.825Z,10.95
2023-01-20T18:49:18.699Z,10.97
2023-01-20T18:51:46.867Z,11.01
2023-01-20T18:54:22.935Z,11.04
2023-01-20T18:56:51.009Z,11.04
2023-01-20T18:59:19.179Z,11.07
2023-01-20T19:01:48.298Z,11.08
2023-01-20T19:04:16.699Z,11.09
2023-01-20T19:06:45.668Z,11.07
2023-01-20T19:09:16.109Z,11.03
2023-01-20T19:11:44.263Z,11.00
2023-01-20T19:14:14.965Z,10.97
2023-01-20T19:16:49.394Z,10.95
2023-01-20T19:19:19.317Z,10.92
2023-01-20T19:21:51.772Z,10.89
2023-01-20T19:24:21.575Z,10.85
2023-01-20T19:26:50.035Z,10.81
2023-01-20T19:29:19.019Z,10.77
2023-01-20T19:31:49.154Z,10.73
2023-01-20T19:34:17.532Z,10.67
2023-01-20T19:36:46.035Z,10.60
2023-01-20T19:39:14.412Z,10.55
2023-01-20T19:41:43.855Z,10.52
2023-01-20T19:44:13.692Z,10.48
2023-01-20T19:46:42.088Z,10.45
2023-01-20T19:49:12.078Z,10.42
2023-01-20T19:51:40.208Z,10.40
2023-01-20T19:54:11.158Z,10.37
2023-01-20T19:56:39.531Z,10.35
2023-01-20T19:59:08.425Z,10.33
2023-01-20T20:01:37.674Z,10.31
2023-01-20T20:04:13.126Z,10.29
2023-01-20T20:06:47.764Z,10.28
2023-01-20T20:09:23.540Z,10.26
2023-01-20T20:11:52.554Z,10.23
2023-01-20T20:14:23.007Z,10.19
2023-01-20T20:16:51.056Z,10.17
2023-01-20T20:19:20.118Z,10.14
2023-01-20T20:21:48.350Z,10.12
2023-01-20T20:24:18.368Z,10.09
2023-01-20T20:26:47.768Z,10.08
2023-01-20T20:29:18.947Z,10.07
2023-01-20T20:31:47.754Z,10.05
2023-01-20T20:34:18.562Z,10.03
2023-01-20T20:36:48.058Z,10.01
2023-01-20T20:39:18.203Z,9.99
2023-01-20T20:41:47.286Z,9.98
2023-01-20T20:44:15.364Z,9.97
2023-01-20T20:46:43.849Z,9.98
2023-01-20T20:49:15.746Z,9.97
2023-01-20T20:51:44.216Z,9.96
2023-01-20T20:54:15.467Z,9.95
2023-01-20T20:56:44.436Z,9.94
2023-01-20T20:59:12.609Z,9.94
2023-01-20T21:01:41.110Z,9.93
2023-01-20T21:04:09.296Z,9.93
2023-01-20T21:06:37.390Z,9.93
2023-01-20T21:09:05.381Z,9.93
2023-01-20T21:11:33.428Z,9.93
2023-01-20T21:14:01.981Z,9.93
2023-01-20T21:16:30.160Z,9.92
2023-01-20T21:18:59.539Z,9.91
2023-01-20T21:21:31.036Z,9.90
2023-01-20T21:23:59.798Z,9.87
2023-01-20T21:26:30.529Z,9.85
2023-01-20T21:29:02.336Z,9.85
2023-01-20T21:31:31.645Z,9.86
2023-01-20T21:34:01.060Z,9.86
2023-01-20T21:36:31.466Z,9.85
2023-01-20T21:39:00.221Z,9.84
2023-01-20T21:41:28.757Z,9.84
2023-01-20T21:44:15.658Z,9.84
2023-01-20T21:46:43.899Z,9.85
2023-01-20T21:49:30.845Z,9.85
2023-01-20T21:52:17.447Z,9.86
2023-01-20T21:54:45.919Z,9.86
2023-01-20T21:57:14.834Z,9.86
2023-01-20T21:59:43.305Z,9.84
2023-01-20T22:02:13.807Z,9.84
2023-01-20T22:04:43.256Z,9.84
2023-01-20T22:07:11.388Z,9.84
2023-01-20T22:09:39.899Z,9.83
2023-01-20T22:12:09.111Z,9.83
2023-01-20T22:14:38.202Z,9.83
2023-01-20T22:17:08.133Z,9.83
2023-01-20T22:19:36.941Z,9.83
2023-01-20T22:22:06.022Z,9.82
2023-01-20T22:24:34.148Z,9.82
2023-01-20T22:27:02.607Z,9.83
2023-01-20T22:29:31.468Z,9.82
2023-01-20T22:32:02.515Z,9.81
2023-01-20T22:34:31.207Z,9.79
2023-01-20T22:37:00.754Z,9.76
2023-01-20T22:39:29.019Z,9.74
2023-01-20T22:41:57.282Z,9.71
2023-01-20T22:44:25.364Z,9.69
2023-01-20T22:46:53.409Z,9.67
2023-01-20T22:49:21.525Z,9.67
2023-01-20T22:51:49.590Z,9.65
2023-01-20T22:54:17.570Z,9.63
2023-01-20T22:56:45.639Z,9.61
2023-01-20T22:59:13.812Z,9.57
2023-01-20T23:01:41.910Z,9.52
2023-01-20T23:04:11.119Z,9.49
2023-01-20T23:06:39.622Z,9.47
2023-01-20T23:09:11.762Z,9.44
2023-01-20T23:11:41.200Z,9.42
2023-01-20T23:14:12.996Z,9.42
2023-01-20T23:16:42.498Z,9.40
2023-01-20T23:19:11.010Z,9.40
2023-01-20T23:21:39.191Z,9.39
2023-01-20T23:24:09.012Z,9.37
2023-01-20T23:26:37.110Z,9.34
2023-01-20T23:29:05.366Z,9.31
2023-01-20T23:31:35.590Z,9.31
2023-01-20T23:34:04.093Z,9.30
2023-01-20T23:36:32.252Z,9.29
2023-01-20T23:39:00.469Z,9.28
2023-01-20T23:41:28.559Z,9.27
2023-01-20T23:43:56.600Z,9.25
2023-01-20T23:46:24.687Z,9.25
2023-01-20T23:48:52.837Z,9.22
2023-01-20T23:51:20.994Z,9.20
2023-01-20T23:53:49.372Z,9.17
2023-01-20T23:56:20.959Z,9.16
2023-01-20T23:58:49.464Z,9.13
